sensor_id;sensor_type;location;lat;lon;timestamp;temperature;humidity
46898;DHT22;32646;50.958;6.258;2023-07-09T00:01:16;20.00;99.90
46898;DHT22;32646;50.958;6.258;2023-07-09T00:03:47;20.00;99.90
46898;DHT22;32646;50.958;6.258;2023-07-09T00:06:17;20.00;99.90
46898;DHT22;32646;50.958;6.258;2023-07-09T00:08:48;20.10;99.90
46898;DHT22;32646;50.958;6.258;2023-07-09T00:11:15;20.10;99.90
46898;DHT22;32646;50.958;6.258;2023-07-09T00:13:42;20.10;99.90
46898;DHT22;32646;50.958;6.258;2023-07-09T00:16:19;20.10;99.90
46898;DHT22;32646;50.958;6.258;2023-07-09T00:18:48;20.00;99.90
46898;DHT22;32646;50.958;6.258;2023-07-09T00:21:20;20.00;99.90
46898;DHT22;32646;50.958;6.258;2023-07-09T00:23:47;19.80;99.90
46898;DHT22;32646;50.958;6.258;2023-07-09T00:26:15;19.80;99.90
46898;DHT22;32646;50.958;6.258;2023-07-09T00:28:43;19.70;99.90
46898;DHT22;32646;50.958;6.258;2023-07-09T00:31:14;19.70;99.90
46898;DHT22;32646;50.958;6.258;2023-07-09T00:33:42;19.70;99.90
46898;DHT22;32646;50.958;6.258;2023-07-09T00:36:27;19.60;99.90
46898;DHT22;32646;50.958;6.258;2023-07-09T00:38:55;19.50;99.90
46898;DHT22;32646;50.958;6.258;2023-07-09T00:41:23;19.50;99.90
46898;DHT22;32646;50.958;6.258;2023-07-09T00:43:51;19.40;99.90
46898;DHT22;32646;50.958;6.258;2023-07-09T00:48:56;19.50;99.90
46898;DHT22;32646;50.958;6.258;2023-07-09T00:51:23;19.40;99.90
46898;DHT22;32646;50.958;6.258;2023-07-09T00:53:53;19.40;99.90
46898;DHT22;32646;50.958;6.258;2023-07-09T00:56:36;19.40;99.90
46898;DHT22;32646;50.958;6.258;2023-07-09T00:59:08;19.40;99.90
46898;DHT22;32646;50.958;6.258;2023-07-09T01:01:36;19.40;99.90
46898;DHT22;32646;50.958;6.258;2023-07-09T01:04:03;19.50;99.90
46898;DHT22;32646;50.958;6.258;2023-07-09T01:06:36;19.40;99.90
46898;DHT22;32646;50.958;6.258;2023-07-09T01:09:04;19.30;99.90
46898;DHT22;32646;50.958;6.258;2023-07-09T01:11:32;19.30;99.90
46898;DHT22;32646;50.958;6.258;2023-07-09T01:14:04;19.30;99.90
46898;DHT22;32646;50.958;6.258;2023-07-09T01:16:37;19.20;99.90
46898;DHT22;32646;50.958;6.258;2023-07-09T01:19:05;19.20;99.90
46898;DHT22;32646;50.958;6.258;2023-07-09T01:21:32;19.20;99.90
46898;DHT22;32646;50.958;6.258;2023-07-09T01:24:09;19.30;99.90
46898;DHT22;32646;50.958;6.258;2023-07-09T01:26:37;19.30;99.90
46898;DHT22;32646;50.958;6.258;2023-07-09T01:29:04;19.30;99.90
46898;DHT22;32646;50.958;6.258;2023-07-09T01:31:30;19.20;99.90
46898;DHT22;32646;50.958;6.258;2023-07-09T01:33:57;19.20;99.90
46898;DHT22;32646;50.958;6.258;2023-07-09T01:36:24;19.20;99.90
46898;DHT22;32646;50.958;6.258;2023-07-09T01:38:52;19.20;99.90
46898;DHT22;32646;50.958;6.258;2023-07-09T01:41:19;19.20;99.90
46898;DHT22;32646;50.958;6.258;2023-07-09T01:43:46;19.20;99.90
46898;DHT22;32646;50.958;6.258;2023-07-09T01:46:12;19.20;99.90
46898;DHT22;32646;50.958;6.258;2023-07-09T01:48:39;19.20;99.90
46898;DHT22;32646;50.958;6.258;2023-07-09T01:51:08;19.10;99.90
46898;DHT22;32646;50.958;6.258;2023-07-09T01:53:36;19.10;99.90
46898;DHT22;32646;50.958;6.258;2023-07-09T01:56:05;19.10;99.90
46898;DHT22;32646;50.958;6.258;2023-07-09T01:58:32;19.00;99.90
46898;DHT22;32646;50.958;6.258;2023-07-09T02:00:59;19.00;99.90
46898;DHT22;32646;50.958;6.258;2023-07-09T02:03:26;18.90;99.90
46898;DHT22;32646;50.958;6.258;2023-07-09T02:05:53;18.90;99.90
46898;DHT22;32646;50.958;6.258;2023-07-09T02:08:20;18.90;99.90
46898;DHT22;32646;50.958;6.258;2023-07-09T02:10:50;18.90;99.90
46898;DHT22;32646;50.958;6.258;2023-07-09T02:13:17;18.80;99.90
46898;DHT22;32646;50.958;6.258;2023-07-09T02:15:44;18.70;99.90
46898;DHT22;32646;50.958;6.258;2023-07-09T02:18:11;18.70;99.90
46898;DHT22;32646;50.958;6.258;2023-07-09T02:20:38;18.60;99.90
46898;DHT22;32646;50.958;6.258;2023-07-09T02:23:06;18.60;99.90
46898;DHT22;32646;50.958;6.258;2023-07-09T02:25:33;18.60;99.90
46898;DHT22;32646;50.958;6.258;2023-07-09T02:28:00;18.60;99.90
46898;DHT22;32646;50.958;6.258;2023-07-09T02:30:27;18.60;99.90
46898;DHT22;32646;50.958;6.258;2023-07-09T02:32:53;18.70;99.90
46898;DHT22;32646;50.958;6.258;2023-07-09T02:35:20;18.80;99.90
46898;DHT22;32646;50.958;6.258;2023-07-09T02:37:47;18.90;99.90
46898;DHT22;32646;50.958;6.258;2023-07-09T02:40:15;19.10;99.90
46898;DHT22;32646;50.958;6.258;2023-07-09T02:42:42;19.10;99.90
46898;DHT22;32646;50.958;6.258;2023-07-09T02:45:09;19.10;99.90
46898;DHT22;32646;50.958;6.258;2023-07-09T02:47:36;19.20;99.90
46898;DHT22;32646;50.958;6.258;2023-07-09T02:50:03;19.20;99.90
46898;DHT22;32646;50.958;6.258;2023-07-09T02:52:30;19.10;99.90
46898;DHT22;32646;50.958;6.258;2023-07-09T02:54:56;19.10;99.90
46898;DHT22;32646;50.958;6.258;2023-07-09T02:57:23;19.20;99.90
46898;DHT22;32646;50.958;6.258;2023-07-09T02:59:49;19.10;99.90
46898;DHT22;32646;50.958;6.258;2023-07-09T03:02:16;19.00;99.90
46898;DHT22;32646;50.958;6.258;2023-07-09T03:04:43;18.90;99.90
46898;DHT22;32646;50.958;6.258;2023-07-09T03:07:09;18.80;99.90
46898;DHT22;32646;50.958;6.258;2023-07-09T03:09:36;18.70;99.90
46898;DHT22;32646;50.958;6.258;2023-07-09T03:12:03;18.80;99.90
46898;DHT22;32646;50.958;6.258;2023-07-09T03:14:30;18.80;99.90
46898;DHT22;32646;50.958;6.258;2023-07-09T03:16:56;18.80;99.90
46898;DHT22;32646;50.958;6.258;2023-07-09T03:19:23;18.90;99.90
46898;DHT22;32646;50.958;6.258;2023-07-09T03:21:50;18.90;99.90
46898;DHT22;32646;50.958;6.258;2023-07-09T03:24:16;18.80;99.90
46898;DHT22;32646;50.958;6.258;2023-07-09T03:26:43;18.80;99.90
46898;DHT22;32646;50.958;6.258;2023-07-09T03:29:09;18.80;99.90
46898;DHT22;32646;50.958;6.258;2023-07-09T03:31:36;18.80;99.90
46898;DHT22;32646;50.958;6.258;2023-07-09T03:34:03;18.70;99.90
46898;DHT22;32646;50.958;6.258;2023-07-09T03:36:30;18.70;99.90
46898;DHT22;32646;50.958;6.258;2023-07-09T03:38:56;18.60;99.90
46898;DHT22;32646;50.958;6.258;2023-07-09T03:41:24;18.60;99.90
46898;DHT22;32646;50.958;6.258;2023-07-09T03:43:51;18.70;99.90
46898;DHT22;32646;50.958;6.258;2023-07-09T03:46:17;18.70;99.90
46898;DHT22;32646;50.958;6.258;2023-07-09T03:48:44;18.60;99.90
46898;DHT22;32646;50.958;6.258;2023-07-09T03:51:11;18.60;99.90
46898;DHT22;32646;50.958;6.258;2023-07-09T03:53:37;18.60;99.90
46898;DHT22;32646;50.958;6.258;2023-07-09T03:56:04;18.50;99.90
46898;DHT22;32646;50.958;6.258;2023-07-09T03:58:31;18.60;99.90
46898;DHT22;32646;50.958;6.258;2023-07-09T04:00:57;18.50;99.90
46898;DHT22;32646;50.958;6.258;2023-07-09T04:03:24;18.50;99.90
46898;DHT22;32646;50.958;6.258;2023-07-09T04:05:51;18.60;99.90
46898;DHT22;32646;50.958;6.258;2023-07-09T04:08:18;18.80;99.90
46898;DHT22;32646;50.958;6.258;2023-07-09T04:10:44;18.70;99.90
46898;DHT22;32646;50.958;6.258;2023-07-09T04:13:11;18.70;99.90
46898;DHT22;32646;50.958;6.258;2023-07-09T04:15:38;18.70;99.90
46898;DHT22;32646;50.958;6.258;2023-07-09T04:18:05;18.70;99.90
46898;DHT22;32646;50.958;6.258;2023-07-09T04:20:31;18.70;99.90
46898;DHT22;32646;50.958;6.258;2023-07-09T04:22:58;18.70;99.90
46898;DHT22;32646;50.958;6.258;2023-07-09T04:25:25;18.60;99.90
46898;DHT22;32646;50.958;6.258;2023-07-09T04:27:51;18.50;99.90
46898;DHT22;32646;50.958;6.258;2023-07-09T04:30:18;18.50;99.90
46898;DHT22;32646;50.958;6.258;2023-07-09T04:32:45;18.50;99.90
46898;DHT22;32646;50.958;6.258;2023-07-09T04:35:13;18.70;99.90
46898;DHT22;32646;50.958;6.258;2023-07-09T04:37:42;18.90;99.90
46898;DHT22;32646;50.958;6.258;2023-07-09T04:40:11;19.10;99.90
46898;DHT22;32646;50.958;6.258;2023-07-09T04:42:38;19.20;99.90
46898;DHT22;32646;50.958;6.258;2023-07-09T04:45:06;19.40;99.90
46898;DHT22;32646;50.958;6.258;2023-07-09T04:47:32;19.40;99.90
46898;DHT22;32646;50.958;6.258;2023-07-09T04:49:59;19.50;99.90
46898;DHT22;32646;50.958;6.258;2023-07-09T04:52:26;19.50;99.90
46898;DHT22;32646;50.958;6.258;2023-07-09T04:54:52;19.60;99.90
46898;DHT22;32646;50.958;6.258;2023-07-09T04:57:19;19.60;99.90
46898;DHT22;32646;50.958;6.258;2023-07-09T04:59:46;19.60;99.90
46898;DHT22;32646;50.958;6.258;2023-07-09T05:02:12;19.70;99.90
46898;DHT22;32646;50.958;6.258;2023-07-09T05:04:39;19.80;99.90
46898;DHT22;32646;50.958;6.258;2023-07-09T05:07:06;19.80;99.90
46898;DHT22;32646;50.958;6.258;2023-07-09T05:09:32;19.80;99.90
46898;DHT22;32646;50.958;6.258;2023-07-09T05:11:59;19.90;99.90
46898;DHT22;32646;50.958;6.258;2023-07-09T05:14:27;19.90;99.90
46898;DHT22;32646;50.958;6.258;2023-07-09T05:16:54;20.00;99.90
46898;DHT22;32646;50.958;6.258;2023-07-09T05:19:21;20.10;99.90
46898;DHT22;32646;50.958;6.258;2023-07-09T05:21:48;20.20;99.90
46898;DHT22;32646;50.958;6.258;2023-07-09T05:24:14;20.30;99.90
46898;DHT22;32646;50.958;6.258;2023-07-09T05:26:41;20.40;99.90
46898;DHT22;32646;50.958;6.258;2023-07-09T05:29:07;20.50;99.90
46898;DHT22;32646;50.958;6.258;2023-07-09T05:31:34;20.60;99.90
46898;DHT22;32646;50.958;6.258;2023-07-09T05:34:01;20.60;99.90
46898;DHT22;32646;50.958;6.258;2023-07-09T05:36:28;20.70;99.90
46898;DHT22;32646;50.958;6.258;2023-07-09T05:38:55;20.80;99.90
46898;DHT22;32646;50.958;6.258;2023-07-09T05:41:22;20.90;99.90
46898;DHT22;32646;50.958;6.258;2023-07-09T05:43:50;21.10;99.90
46898;DHT22;32646;50.958;6.258;2023-07-09T05:46:17;21.20;99.90
46898;DHT22;32646;50.958;6.258;2023-07-09T05:48:44;21.30;99.90
46898;DHT22;32646;50.958;6.258;2023-07-09T05:51:10;21.40;99.90
46898;DHT22;32646;50.958;6.258;2023-07-09T05:53:37;21.50;99.90
46898;DHT22;32646;50.958;6.258;2023-07-09T05:56:04;21.60;99.90
46898;DHT22;32646;50.958;6.258;2023-07-09T05:58:31;21.70;99.90
46898;DHT22;32646;50.958;6.258;2023-07-09T06:00:57;21.80;99.90
46898;DHT22;32646;50.958;6.258;2023-07-09T06:03:25;22.00;99.90
46898;DHT22;32646;50.958;6.258;2023-07-09T06:05:53;22.10;99.90
46898;DHT22;32646;50.958;6.258;2023-07-09T06:08:20;22.30;99.90
46898;DHT22;32646;50.958;6.258;2023-07-09T06:10:55;22.30;99.90
46898;DHT22;32646;50.958;6.258;2023-07-09T06:13:23;22.40;99.90
46898;DHT22;32646;50.958;6.258;2023-07-09T06:15:51;22.60;99.90
46898;DHT22;32646;50.958;6.258;2023-07-09T06:18:19;22.80;99.90
46898;DHT22;32646;50.958;6.258;2023-07-09T06:20:50;23.00;99.90
46898;DHT22;32646;50.958;6.258;2023-07-09T06:23:18;23.10;99.90
46898;DHT22;32646;50.958;6.258;2023-07-09T06:25:46;23.20;99.90
46898;DHT22;32646;50.958;6.258;2023-07-09T06:28:17;23.40;99.90
46898;DHT22;32646;50.958;6.258;2023-07-09T06:30:45;23.40;99.90
46898;DHT22;32646;50.958;6.258;2023-07-09T06:33:13;23.60;99.90
46898;DHT22;32646;50.958;6.258;2023-07-09T06:35:53;23.70;99.90
46898;DHT22;32646;50.958;6.258;2023-07-09T06:38:20;23.90;99.90
46898;DHT22;32646;50.958;6.258;2023-07-09T06:40:47;24.00;99.90
46898;DHT22;32646;50.958;6.258;2023-07-09T06:43:14;24.10;99.90
46898;DHT22;32646;50.958;6.258;2023-07-09T06:45:59;24.20;99.90
46898;DHT22;32646;50.958;6.258;2023-07-09T06:48:27;24.20;99.90
46898;DHT22;32646;50.958;6.258;2023-07-09T06:50:55;24.30;99.90
46898;DHT22;32646;50.958;6.258;2023-07-09T06:53:23;24.50;99.90
46898;DHT22;32646;50.958;6.258;2023-07-09T06:55:49;24.60;99.90
46898;DHT22;32646;50.958;6.258;2023-07-09T06:58:17;24.60;99.90
46898;DHT22;32646;50.958;6.258;2023-07-09T07:00:44;24.90;99.90
46898;DHT22;32646;50.958;6.258;2023-07-09T07:03:11;24.90;99.90
46898;DHT22;32646;50.958;6.258;2023-07-09T07:05:43;25.00;99.90
46898;DHT22;32646;50.958;6.258;2023-07-09T07:08:10;25.20;99.90
46898;DHT22;32646;50.958;6.258;2023-07-09T07:10:36;25.40;99.90
46898;DHT22;32646;50.958;6.258;2023-07-09T07:13:03;25.50;99.90
46898;DHT22;32646;50.958;6.258;2023-07-09T07:15:29;25.50;99.90
46898;DHT22;32646;50.958;6.258;2023-07-09T07:17:56;25.60;99.90
46898;DHT22;32646;50.958;6.258;2023-07-09T07:20:23;25.70;99.90
46898;DHT22;32646;50.958;6.258;2023-07-09T07:22:49;25.80;99.90
46898;DHT22;32646;50.958;6.258;2023-07-09T07:25:16;26.00;99.90
46898;DHT22;32646;50.958;6.258;2023-07-09T07:27:43;26.00;99.90
46898;DHT22;32646;50.958;6.258;2023-07-09T07:30:10;26.10;99.90
46898;DHT22;32646;50.958;6.258;2023-07-09T07:32:47;26.30;99.90
46898;DHT22;32646;50.958;6.258;2023-07-09T07:35:14;26.40;99.90
46898;DHT22;32646;50.958;6.258;2023-07-09T07:37:41;26.50;99.90
46898;DHT22;32646;50.958;6.258;2023-07-09T07:40:09;26.50;99.40
46898;DHT22;32646;50.958;6.258;2023-07-09T07:42:36;26.70;99.90
46898;DHT22;32646;50.958;6.258;2023-07-09T07:45:04;26.80;96.70
46898;DHT22;32646;50.958;6.258;2023-07-09T07:47:31;27.00;97.40
46898;DHT22;32646;50.958;6.258;2023-07-09T07:49:57;27.10;99.30
46898;DHT22;32646;50.958;6.258;2023-07-09T07:52:24;27.30;95.40
46898;DHT22;32646;50.958;6.258;2023-07-09T07:54:51;27.40;95.00
46898;DHT22;32646;50.958;6.258;2023-07-09T07:57:18;27.50;95.00
46898;DHT22;32646;50.958;6.258;2023-07-09T07:59:44;27.80;97.10
46898;DHT22;32646;50.958;6.258;2023-07-09T08:02:13;27.90;95.10
46898;DHT22;32646;50.958;6.258;2023-07-09T08:04:40;28.20;95.20
46898;DHT22;32646;50.958;6.258;2023-07-09T08:07:08;28.40;90.30
46898;DHT22;32646;50.958;6.258;2023-07-09T08:09:36;28.60;88.60
46898;DHT22;32646;50.958;6.258;2023-07-09T08:12:03;28.80;86.00
46898;DHT22;32646;50.958;6.258;2023-07-09T08:14:30;29.10;80.60
46898;DHT22;32646;50.958;6.258;2023-07-09T08:16:57;29.40;79.90
46898;DHT22;32646;50.958;6.258;2023-07-09T08:19:23;30.10;77.10
46898;DHT22;32646;50.958;6.258;2023-07-09T08:21:50;31.00;70.90
46898;DHT22;32646;50.958;6.258;2023-07-09T08:24:16;31.90;64.60
46898;DHT22;32646;50.958;6.258;2023-07-09T08:26:43;32.50;65.20
46898;DHT22;32646;50.958;6.258;2023-07-09T08:29:10;32.90;60.00
46898;DHT22;32646;50.958;6.258;2023-07-09T08:31:36;33.40;55.50
46898;DHT22;32646;50.958;6.258;2023-07-09T08:34:05;33.50;55.80
46898;DHT22;32646;50.958;6.258;2023-07-09T08:36:32;34.00;59.60
46898;DHT22;32646;50.958;6.258;2023-07-09T08:39:01;34.30;53.60
46898;DHT22;32646;50.958;6.258;2023-07-09T08:41:44;34.30;51.10
46898;DHT22;32646;50.958;6.258;2023-07-09T08:44:50;34.70;51.20
46898;DHT22;32646;50.958;6.258;2023-07-09T08:50:22;35.10;52.20
46898;DHT22;32646;50.958;6.258;2023-07-09T08:52:51;35.10;49.50
46898;DHT22;32646;50.958;6.258;2023-07-09T08:55:28;35.30;49.40
46898;DHT22;32646;50.958;6.258;2023-07-09T08:58:03;35.20;50.40
46898;DHT22;32646;50.958;6.258;2023-07-09T09:00:44;35.80;48.40
46898;DHT22;32646;50.958;6.258;2023-07-09T09:03:37;35.70;50.30
46898;DHT22;32646;50.958;6.258;2023-07-09T09:06:17;35.60;50.00
46898;DHT22;32646;50.958;6.258;2023-07-09T09:08:53;35.30;49.50
46898;DHT22;32646;50.958;6.258;2023-07-09T09:11:44;35.70;51.60
46898;DHT22;32646;50.958;6.258;2023-07-09T09:16:49;35.80;44.10
46898;DHT22;32646;50.958;6.258;2023-07-09T09:19:36;35.80;48.90
46898;DHT22;32646;50.958;6.258;2023-07-09T09:22:15;36.10;47.40
46898;DHT22;32646;50.958;6.258;2023-07-09T09:25:01;36.10;44.70
46898;DHT22;32646;50.958;6.258;2023-07-09T09:27:30;36.60;44.90
46898;DHT22;32646;50.958;6.258;2023-07-09T09:29:56;36.30;45.70
46898;DHT22;32646;50.958;6.258;2023-07-09T09:32:26;36.10;47.00
46898;DHT22;32646;50.958;6.258;2023-07-09T09:34:54;36.80;44.50
46898;DHT22;32646;50.958;6.258;2023-07-09T09:37:29;36.70;46.80
46898;DHT22;32646;50.958;6.258;2023-07-09T09:39:58;36.70;46.40
46898;DHT22;32646;50.958;6.258;2023-07-09T09:42:43;36.80;41.80
46898;DHT22;32646;50.958;6.258;2023-07-09T09:45:16;36.90;39.10
46898;DHT22;32646;50.958;6.258;2023-07-09T09:47:45;36.70;42.20
46898;DHT22;32646;50.958;6.258;2023-07-09T09:50:18;37.10;38.80
46898;DHT22;32646;50.958;6.258;2023-07-09T09:52:47;37.70;41.90
46898;DHT22;32646;50.958;6.258;2023-07-09T09:55:24;37.80;39.40
46898;DHT22;32646;50.958;6.258;2023-07-09T09:57:53;37.30;41.70
46898;DHT22;32646;50.958;6.258;2023-07-09T10:00:25;37.40;40.90
46898;DHT22;32646;50.958;6.258;2023-07-09T10:03:01;37.50;37.40
46898;DHT22;32646;50.958;6.258;2023-07-09T10:05:38;37.10;37.20
46898;DHT22;32646;50.958;6.258;2023-07-09T10:08:10;37.00;42.00
46898;DHT22;32646;50.958;6.258;2023-07-09T10:10:42;37.20;42.40
46898;DHT22;32646;50.958;6.258;2023-07-09T10:13:26;37.30;39.60
46898;DHT22;32646;50.958;6.258;2023-07-09T10:16:09;37.70;40.00
46898;DHT22;32646;50.958;6.258;2023-07-09T10:18:51;37.80;41.30
46898;DHT22;32646;50.958;6.258;2023-07-09T10:22:04;37.40;38.10
46898;DHT22;32646;50.958;6.258;2023-07-09T10:30:25;36.90;32.70
46898;DHT22;32646;50.958;6.258;2023-07-09T10:33:09;36.90;32.50
46898;DHT22;32646;50.958;6.258;2023-07-09T10:35:57;37.10;31.30
46898;DHT22;32646;50.958;6.258;2023-07-09T10:38:39;37.20;33.10
46898;DHT22;32646;50.958;6.258;2023-07-09T10:41:11;36.70;30.50
46898;DHT22;32646;50.958;6.258;2023-07-09T10:44:08;36.80;31.20
46898;DHT22;32646;50.958;6.258;2023-07-09T10:46:39;36.60;30.50
46898;DHT22;32646;50.958;6.258;2023-07-09T10:49:11;36.70;31.60
46898;DHT22;32646;50.958;6.258;2023-07-09T10:51:39;36.70;32.40
46898;DHT22;32646;50.958;6.258;2023-07-09T10:54:32;36.60;31.10
46898;DHT22;32646;50.958;6.258;2023-07-09T10:57:14;36.70;32.20
46898;DHT22;32646;50.958;6.258;2023-07-09T10:59:46;36.70;30.20
46898;DHT22;32646;50.958;6.258;2023-07-09T11:08:12;37.00;30.60
46898;DHT22;32646;50.958;6.258;2023-07-09T11:10:32;37.30;32.30
46898;DHT22;32646;50.958;6.258;2023-07-09T11:13:23;37.20;31.90
46898;DHT22;32646;50.958;6.258;2023-07-09T11:16:03;36.90;29.60
46898;DHT22;32646;50.958;6.258;2023-07-09T11:18:34;36.90;30.90
46898;DHT22;32646;50.958;6.258;2023-07-09T11:23:49;36.30;31.10
46898;DHT22;32646;50.958;6.258;2023-07-09T11:26:24;36.60;31.20
46898;DHT22;32646;50.958;6.258;2023-07-09T11:28:55;36.50;30.30
46898;DHT22;32646;50.958;6.258;2023-07-09T11:31:38;36.30;30.00
46898;DHT22;32646;50.958;6.258;2023-07-09T11:36:51;36.40;31.20
46898;DHT22;32646;50.958;6.258;2023-07-09T11:39:39;36.40;30.40
46898;DHT22;32646;50.958;6.258;2023-07-09T11:45:09;35.80;32.60
46898;DHT22;32646;50.958;6.258;2023-07-09T11:47:42;35.70;30.60
46898;DHT22;32646;50.958;6.258;2023-07-09T11:50:31;35.90;31.10
46898;DHT22;32646;50.958;6.258;2023-07-09T11:53:03;36.20;31.40
46898;DHT22;32646;50.958;6.258;2023-07-09T11:55:40;36.00;31.90
46898;DHT22;32646;50.958;6.258;2023-07-09T11:58:12;36.40;33.50
46898;DHT22;32646;50.958;6.258;2023-07-09T12:00:45;36.70;30.40
46898;DHT22;32646;50.958;6.258;2023-07-09T12:03:18;36.80;32.90
46898;DHT22;32646;50.958;6.258;2023-07-09T12:06:00;36.60;31.40
46898;DHT22;32646;50.958;6.258;2023-07-09T12:08:34;36.90;29.60
46898;DHT22;32646;50.958;6.258;2023-07-09T12:11:01;36.80;31.80
46898;DHT22;32646;50.958;6.258;2023-07-09T12:13:28;36.30;29.80
46898;DHT22;32646;50.958;6.258;2023-07-09T12:15:55;36.10;32.10
46898;DHT22;32646;50.958;6.258;2023-07-09T12:18:22;36.20;31.30
46898;DHT22;32646;50.958;6.258;2023-07-09T12:20:52;35.80;31.70
46898;DHT22;32646;50.958;6.258;2023-07-09T12:23:27;35.20;31.40
46898;DHT22;32646;50.958;6.258;2023-07-09T12:25:56;34.80;31.70
46898;DHT22;32646;50.958;6.258;2023-07-09T12:28:27;34.70;34.40
46898;DHT22;32646;50.958;6.258;2023-07-09T12:30:54;34.30;34.00
46898;DHT22;32646;50.958;6.258;2023-07-09T12:33:23;34.30;34.70
46898;DHT22;32646;50.958;6.258;2023-07-09T12:36:03;34.10;37.00
46898;DHT22;32646;50.958;6.258;2023-07-09T12:38:42;33.80;37.60
46898;DHT22;32646;50.958;6.258;2023-07-09T12:41:38;33.40;39.00
46898;DHT22;32646;50.958;6.258;2023-07-09T12:44:16;33.00;39.00
46898;DHT22;32646;50.958;6.258;2023-07-09T12:46:45;32.60;41.60
46898;DHT22;32646;50.958;6.258;2023-07-09T12:49:24;32.30;44.20
46898;DHT22;32646;50.958;6.258;2023-07-09T12:51:54;31.80;45.70
46898;DHT22;32646;50.958;6.258;2023-07-09T12:54:21;31.50;47.40
46898;DHT22;32646;50.958;6.258;2023-07-09T12:56:53;31.00;50.00
46898;DHT22;32646;50.958;6.258;2023-07-09T13:01:56;28.40;57.50
46898;DHT22;32646;50.958;6.258;2023-07-09T13:04:36;26.90;73.00
46898;DHT22;32646;50.958;6.258;2023-07-09T13:07:03;25.20;90.60
46898;DHT22;32646;50.958;6.258;2023-07-09T13:09:30;23.60;99.90
46898;DHT22;32646;50.958;6.258;2023-07-09T13:11:58;22.70;99.90
46898;DHT22;32646;50.958;6.258;2023-07-09T13:14:27;22.60;99.90
46898;DHT22;32646;50.958;6.258;2023-07-09T13:17:03;22.60;99.90
46898;DHT22;32646;50.958;6.258;2023-07-09T13:19:30;22.00;99.90
46898;DHT22;32646;50.958;6.258;2023-07-09T13:21:57;21.90;99.90
46898;DHT22;32646;50.958;6.258;2023-07-09T13:24:25;21.70;99.90
46898;DHT22;32646;50.958;6.258;2023-07-09T13:26:53;21.90;99.90
46898;DHT22;32646;50.958;6.258;2023-07-09T13:29:20;21.90;99.90
46898;DHT22;32646;50.958;6.258;2023-07-09T13:31:48;21.90;99.90
46898;DHT22;32646;50.958;6.258;2023-07-09T13:34:28;21.90;99.90
46898;DHT22;32646;50.958;6.258;2023-07-09T13:36:56;21.70;99.90
46898;DHT22;32646;50.958;6.258;2023-07-09T13:39:23;22.20;99.90
46898;DHT22;32646;50.958;6.258;2023-07-09T13:41:54;22.70;99.90
46898;DHT22;32646;50.958;6.258;2023-07-09T13:44:24;23.00;99.90
46898;DHT22;32646;50.958;6.258;2023-07-09T13:46:51;22.90;99.90
46898;DHT22;32646;50.958;6.258;2023-07-09T13:49:20;23.10;99.90
46898;DHT22;32646;50.958;6.258;2023-07-09T13:51:48;23.30;99.90
46898;DHT22;32646;50.958;6.258;2023-07-09T13:54:19;23.30;99.90
46898;DHT22;32646;50.958;6.258;2023-07-09T13:56:46;22.90;99.90
46898;DHT22;32646;50.958;6.258;2023-07-09T13:59:20;22.40;99.90
46898;DHT22;32646;50.958;6.258;2023-07-09T14:01:50;22.20;99.90
46898;DHT22;32646;50.958;6.258;2023-07-09T14:04:18;22.20;99.90
46898;DHT22;32646;50.958;6.258;2023-07-09T14:06:46;22.10;99.90
46898;DHT22;32646;50.958;6.258;2023-07-09T14:09:14;21.90;99.90
46898;DHT22;32646;50.958;6.258;2023-07-09T14:11:46;21.50;99.90
46898;DHT22;32646;50.958;6.258;2023-07-09T14:14:29;21.40;99.90
46898;DHT22;32646;50.958;6.258;2023-07-09T14:16:57;21.30;99.90
46898;DHT22;32646;50.958;6.258;2023-07-09T14:19:24;21.10;99.90
46898;DHT22;32646;50.958;6.258;2023-07-09T14:21:51;21.20;99.90
46898;DHT22;32646;50.958;6.258;2023-07-09T14:24:21;21.20;99.90
46898;DHT22;32646;50.958;6.258;2023-07-09T14:26:50;21.20;99.90
46898;DHT22;32646;50.958;6.258;2023-07-09T14:29:17;21.10;99.90
46898;DHT22;32646;50.958;6.258;2023-07-09T14:31:43;21.20;99.90
46898;DHT22;32646;50.958;6.258;2023-07-09T14:34:20;21.40;99.90
46898;DHT22;32646;50.958;6.258;2023-07-09T14:36:48;21.40;99.90
46898;DHT22;32646;50.958;6.258;2023-07-09T14:39:15;21.50;99.90
46898;DHT22;32646;50.958;6.258;2023-07-09T14:41:42;21.50;99.90
46898;DHT22;32646;50.958;6.258;2023-07-09T14:44:20;21.50;99.90
46898;DHT22;32646;50.958;6.258;2023-07-09T14:46:48;21.70;99.90
46898;DHT22;32646;50.958;6.258;2023-07-09T14:49:16;21.70;99.90
46898;DHT22;32646;50.958;6.258;2023-07-09T14:51:43;21.70;99.90
46898;DHT22;32646;50.958;6.258;2023-07-09T14:54:28;21.90;99.90
46898;DHT22;32646;50.958;6.258;2023-07-09T14:56:56;21.80;99.90
46898;DHT22;32646;50.958;6.258;2023-07-09T14:59:24;21.90;99.90
46898;DHT22;32646;50.958;6.258;2023-07-09T15:01:52;21.90;99.90
46898;DHT22;32646;50.958;6.258;2023-07-09T15:06:53;21.90;99.90
46898;DHT22;32646;50.958;6.258;2023-07-09T15:09:22;21.80;99.90
46898;DHT22;32646;50.958;6.258;2023-07-09T15:11:54;21.80;99.90
46898;DHT22;32646;50.958;6.258;2023-07-09T15:14:21;21.90;99.90
46898;DHT22;32646;50.958;6.258;2023-07-09T15:16:48;21.80;99.90
46898;DHT22;32646;50.958;6.258;2023-07-09T15:19:17;22.00;99.90
46898;DHT22;32646;50.958;6.258;2023-07-09T15:21:43;22.10;99.90
46898;DHT22;32646;50.958;6.258;2023-07-09T15:24:23;22.10;99.90
46898;DHT22;32646;50.958;6.258;2023-07-09T15:26:53;22.00;99.90
46898;DHT22;32646;50.958;6.258;2023-07-09T15:29:21;22.10;99.90
46898;DHT22;32646;50.958;6.258;2023-07-09T15:31:48;22.00;99.90
46898;DHT22;32646;50.958;6.258;2023-07-09T15:34:15;22.00;99.90
46898;DHT22;32646;50.958;6.258;2023-07-09T15:36:46;22.20;99.90
46898;DHT22;32646;50.958;6.258;2023-07-09T15:39:14;22.40;99.90
46898;DHT22;32646;50.958;6.258;2023-07-09T15:41:41;22.60;99.90
46898;DHT22;32646;50.958;6.258;2023-07-09T15:44:14;22.80;99.90
46898;DHT22;32646;50.958;6.258;2023-07-09T15:46:52;22.70;99.90
46898;DHT22;32646;50.958;6.258;2023-07-09T15:49:19;22.60;99.90
46898;DHT22;32646;50.958;6.258;2023-07-09T15:51:45;22.60;99.90
46898;DHT22;32646;50.958;6.258;2023-07-09T15:54:17;22.80;99.90
46898;DHT22;32646;50.958;6.258;2023-07-09T15:56:45;22.90;99.90
46898;DHT22;32646;50.958;6.258;2023-07-09T15:59:31;23.20;99.90
46898;DHT22;32646;50.958;6.258;2023-07-09T16:01:59;23.40;99.90
46898;DHT22;32646;50.958;6.258;2023-07-09T16:04:27;23.60;99.90
46898;DHT22;32646;50.958;6.258;2023-07-09T16:06:54;23.60;99.90
46898;DHT22;32646;50.958;6.258;2023-07-09T16:09:21;23.70;99.90
46898;DHT22;32646;50.958;6.258;2023-07-09T16:11:50;23.90;99.90
46898;DHT22;32646;50.958;6.258;2023-07-09T16:14:27;23.50;99.90
46898;DHT22;32646;50.958;6.258;2023-07-09T16:16:55;23.50;99.90
46898;DHT22;32646;50.958;6.258;2023-07-09T16:19:26;23.60;99.90
46898;DHT22;32646;50.958;6.258;2023-07-09T16:21:55;23.70;99.90